Home | U.S. Races | Non U.S. Races | Search | FAQ | Link | Advertise | Split Second | NASTAR  
 

    Link to This RaceResults  
MJSL North Finals Slalom - Boys - Single Crs, Combined
USA - ME - Titcomb Mountain
2/18/2017 9:00 AM

OFFICIAL RESULTS¹print

                         SINGLE COURSE RACE  2/18/2017                    Page 1 
 
MJSL Slalom Finals - Boys 
February 18, 2017 
 
Pl Bib Class Team Name Run 1 Run 2 Result 
________________________________________________________________________________ 
1 87 SM FAST Jack Kearing 42.80 (1) 44.57 (1) 1:27.37 (1) 
2 75 SM FAST Josh Smith 44.47 (2) 45.52 (2) 1:29.99 (2) 
3 86 WMAR Benjamin Beckerman 44.86 (3) 46.15 (4) 1:31.01 (3) 
4 73 SAST Jake Tyler 45.62 (4) 46.12 (3) 1:31.74 (4) 
5 74 WMAR Ethan Bouchard 45.87 (6) 46.87 (5) 1:32.74 (5) 
6 94 SM OH Nick Bancroft 45.62 (4) 47.26 (7) 1:32.88 (6) 
7 89 MAR Sam McKee 46.74 (7) 47.05 (6) 1:33.79 (7) 
8 77 SM CSB Oscar Horovitz 47.87 (8) 48.02 (8) 1:35.89 (8) 
9 170 AMS Dylan Bilodeau 48.05 (11) 49.07 (9) 1:37.12 (9) 
10 171 MAR Luca Hannon 48.41 (13) 49.47 (10) 1:37.88 (10) 
11 110 MAR Jackson Melendy 48.10 (12) 49.88 (12) 1:37.98 (11) 
12 109 CSB Devon Smith 48.71 (14) 49.80 (11) 1:38.51 (12) 
13 119 SM CSB Rhys White 49.00 (15) 50.78 (17) 1:39.78 (13) 
14 91 SM SPR Jack Gilbert 49.36 (17) 50.77 (16) 1:40.13 (14) 
15 79 RANG Charlie Pye 50.44 (21) 49.97 (13) 1:40.41 (15) 
16 90 RANG Wyatt Brey 49.94 (18) 50.72 (15) 1:40.66 (16) 
17 129 CSB Noah LaChance 49.25 (16) 51.47 (18) 1:40.72 (17) 
18 76 SM CMSC Burke MacLeay 50.25 (19) 50.52 (14) 1:40.77 (18) 
19 108 FAST Trent Beaudoin 50.36 (20) 51.54 (19) 1:41.90 (19) 
20 117 SAST Eli Fournier 51.59 (23) 51.94 (21) 1:43.53 (20) 
21 95 AMS Tyler Smith 52.10 (24) 52.20 (23) 1:44.30 (21) 
22 118 FAST Sam Goodspeed 51.52 (22) 53.13 (27) 1:44.65 (22) 
23 120 MAR Dylan McGarr 52.55 (25) 52.53 (25) 1:45.08 (23) 
24 138 SM CSB Tanner Robinson 53.44 (29) 51.89 (20) 1:45.33 (24) 
25 107 SAST Ben DeBiase 53.41 (28) 51.97 (22) 1:45.38 (25) 
26 130 MAR Eli Jacobs 53.19 (27) 52.38 (24) 1:45.57 (26) 
27 157 ALT/S CSB Britt Lafiuara 52.66 (26) 53.49 (30) 1:46.15 (27) 
28 98 FAST Ashton Beaudoin 54.00 (30) 53.34 (29) 1:47.34 (28) 
29 147 MAR Aiden Knowlan 54.67 (32) 52.68 (26) 1:47.35 (29) 
30 82 MTV Brady Davis 47.92 (9) 1:00.25 (50) 1:48.17 (30) 
31 146 CSB Jaxon Lowe 55.42 (33) 55.11 (33) 1:50.53 (31) 
32 127 SAST Calvin Punderson 54.50 (31) 57.11 (39) 1:51.61 (32) 
33 139 MAR Michael Tamborini 56.38 (34) 56.48 (37) 1:52.86 (33) 
34 158 ALT MAR Finn Sheridan-Cran 57.26 (37) 55.80 (34) 1:53.06 (34) 
35 111 RANG Joseph Rucker 57.14 (36) 56.13 (35) 1:53.27 (35) 
36 116 AMS Caleb Davis 57.35 (38) 56.22 (36) 1:53.57 (36) 
37 103 SM MTA Lyle Hering 58.88 (43) 57.02 (38) 1:55.90 (37) 
38 96 SAST Noah Koenig 1:03.06 (55) 53.22 (28) 1:56.28 (38) 
39 93 MTV Tyler Freeman 57.91 (41) 59.14 (44) 1:57.05 (39) 
40 121 RANG Tucker Macfawn 1:04.28 (56) 53.81 (31) 1:58.09 (40) 
41 144 SM AMS Deven Egge 59.31 (45) 58.99 (43) 1:58.30 (41) 
42 153 MAR Mietek Gawrom 58.49 (42) 1:00.25 (50) 1:58.74 (42) 
43 136 SAST Will Defroscia 58.99 (44) 59.80 (46) 1:58.79 (43) 
44 135 SM AMS Casey Burhoe 59.57 (46) 1:00.18 (49) 1:59.75 (44) 
45 102 SPR Logan Knight 1:00.96 (50) 58.96 (42) 1:59.92 (45) 
46 155 ALT/S AMS Jack Howanciec 1:00.84 (49) 1:00.17 (48) 2:01.01 (46) 
47 145 FAST Asa Stroman 57.90 (40) 1:03.59 (56) 2:01.49 (47) 
48 126 AMS Andrew Herrick 1:01.97 (53) 1:00.03 (47) 2:02.00 (48) 
49 71 OH Payton Sherbinski 1:00.28 (47) 1:02.93 (53) 2:03.21 (49) 
50 152 ALT CSB Ryan Southworth 1:01.44 (51) 1:02.07 (52) 2:03.51 (50) 
51 124 MTV Nate Gallant 1:00.56 (48) 1:03.10 (54) 2:03.66 (51) 
52 106 SM AMS Cameron Langlois 1:01.87 (52) 1:03.15 (55) 2:05.02 (52) 
53 114 MTV Logan Cote 1:02.03 (54) 1:03.71 (57) 2:05.74 (53) 
54 122 SPR Max Labone 1:05.49 (58) 1:03.84 (59) 2:09.33 (54) 
55 113 MTA Tre Pease 1:05.90 (59) 1:04.91 (60) 2:10.81 (55) 
56 172 RANG Will Dugan 1:05.91 (60) 1:05.76 (61) 2:11.67 (56) 
57 105 OH Trevor Ward 1:05.23 (57) 1:06.93 (62) 2:12.16 (57) 
58 83 OH Calvin Grover 1:11.34 (68) 1:03.80 (58) 2:15.14 (58) 
59 92 MTA Marty Kelley 1:06.92 (62) 1:08.27 (63) 2:15.19 (59) 
60 134 OH Quinn Harnett 1:08.42 (64) 1:09.45 (65) 2:17.87 (60) 
61 125 OH Alden Timm 1:09.12 (65) 1:09.32 (64) 2:18.44 (61) 
62 123 MTA Eligah Coffren 1:12.49 (70) 1:10.37 (66) 2:22.86 (62) 
63 151 ALT FAST Brian Roy 1:10.67 (67) 1:13.17 (67) 2:23.84 (63) 
64 137 FAST JJ Alexander 1:14.22 (71) 1:13.28 (68) 2:27.50 (64) 
65 148 SPR Bryce Marston 1:12.23 (69) 1:17.67 (72) 2:29.90 (65) 
66 112 SM SPR Caleb Parlin 1:14.45 (72) 1:15.63 (70) 2:30.08 (66) 
67 156 ALT MTV Connor Files 1:16.30 (73) 1:14.38 (69) 2:30.68 (67) 
68 141 SPR Lachlan Gilbert 1:18.91 (74) 1:17.53 (71) 2:36.44 (68) 
69 128 SM FAST Xander Gurney 1:44.32 (75) 57.76 (41) 2:42.08 (69) 
70 101 RANG Connor Hall DSQ 54.93 (32) 
71 104 MTV Colby Volkernick DSQ 57.69 (40) 
72 81 MTA Ian Allen DSQ 59.63 (45) 
73 78 MAR Jordan Bell DNS DNS 
74 97 WMAR Alexander Baribeau DNS DNS 
75 142 MTV Joel Tardiff DNS DNS 
76 143 OH Wade Ryder DNS DNS 
77 149 MTV Bradley Sirois DNS DNS 
78 154 ALT MTV Josh White DNS DNS 
79 80 SPR Reece Davis DNF DNS 
80 99 SM CSB Emerson Brott 47.92 (9) DNF 
81 85 SAST Charles Seavey 1:10.49 (66) DNF 
82 84 AMS Caleb Strout 56.85 (35) DSQ 
83 133 MTV Preston Martin 57.43 (39) DSQ 
84 140 RANG Owen Dugan 1:06.19 (61) DSQ 
85 132 SPR Shawn Quirrion 1:07.92 (63) DSQ 
86 88 CSB Lake Lindelof DSQ DSQ 
87 115 OH Gavin Crowell DSQ DSQ 
88 18 
 
 
 
 
 
 
 
 
 
________________________________________________________________________________ 
 
Ski Club Software from www.SplitSecond.com 2/19/2017 6:14:46 PM 

¹ attached report
Widgets    Upload/View Logos
All results are 'unofficial'     Copyright © 2017 Split Second Sports Timing, Inc., All rights reserved